sensor_id;sensor_type;location;lat;lon;timestamp;P1;durP1;ratioP1;P2;durP2;ratioP2
18338;SDS011;9295;44.484;11.240;2023-03-17T00:01:56;7.60;;;4.73;;
18338;SDS011;9295;44.484;11.240;2023-03-17T00:04:25;15.83;;;4.40;;
18338;SDS011;9295;44.484;11.240;2023-03-17T00:06:54;11.07;;;5.10;;
18338;SDS011;9295;44.484;11.240;2023-03-17T00:09:23;11.53;;;5.27;;
18338;SDS011;9295;44.484;11.240;2023-03-17T00:11:53;7.60;;;4.60;;
18338;SDS011;9295;44.484;11.240;2023-03-17T00:14:22;8.60;;;4.30;;
18338;SDS011;9295;44.484;11.240;2023-03-17T00:16:50;7.10;;;4.30;;
18338;SDS011;9295;44.484;11.240;2023-03-17T00:19:21;8.97;;;3.90;;
18338;SDS011;9295;44.484;11.240;2023-03-17T00:21:53;7.77;;;3.87;;
18338;SDS011;9295;44.484;11.240;2023-03-17T00:24:22;9.80;;;4.17;;
18338;SDS011;9295;44.484;11.240;2023-03-17T00:26:50;7.70;;;3.60;;
18338;SDS011;9295;44.484;11.240;2023-03-17T00:29:22;8.83;;;3.40;;
18338;SDS011;9295;44.484;11.240;2023-03-17T00:31:51;7.30;;;3.67;;
18338;SDS011;9295;44.484;11.240;2023-03-17T00:34:21;8.60;;;3.33;;
18338;SDS011;9295;44.484;11.240;2023-03-17T00:36:50;6.30;;;3.43;;
18338;SDS011;9295;44.484;11.240;2023-03-17T00:39:21;10.27;;;3.57;;
18338;SDS011;9295;44.484;11.240;2023-03-17T00:41:53;6.07;;;3.30;;
18338;SDS011;9295;44.484;11.240;2023-03-17T00:44:23;6.93;;;4.10;;
18338;SDS011;9295;44.484;11.240;2023-03-17T00:46:52;7.77;;;3.73;;
18338;SDS011;9295;44.484;11.240;2023-03-17T00:49:22;7.37;;;4.00;;
18338;SDS011;9295;44.484;11.240;2023-03-17T00:51:52;8.10;;;3.90;;
18338;SDS011;9295;44.484;11.240;2023-03-17T00:54:21;7.40;;;4.33;;
18338;SDS011;9295;44.484;11.240;2023-03-17T00:56:49;6.10;;;3.60;;
18338;SDS011;9295;44.484;11.240;2023-03-17T00:59:25;8.40;;;3.90;;
18338;SDS011;9295;44.484;11.240;2023-03-17T01:01:56;7.10;;;3.50;;
18338;SDS011;9295;44.484;11.240;2023-03-17T01:04:25;6.67;;;3.67;;
18338;SDS011;9295;44.484;11.240;2023-03-17T01:06:54;10.60;;;3.90;;
18338;SDS011;9295;44.484;11.240;2023-03-17T01:09:25;7.20;;;3.50;;
18338;SDS011;9295;44.484;11.240;2023-03-17T01:11:56;7.73;;;3.30;;
18338;SDS011;9295;44.484;11.240;2023-03-17T01:14:26;6.80;;;3.80;;
18338;SDS011;9295;44.484;11.240;2023-03-17T01:16:55;6.33;;;3.70;;
18338;SDS011;9295;44.484;11.240;2023-03-17T01:19:24;6.67;;;3.20;;
18338;SDS011;9295;44.484;11.240;2023-03-17T01:21:52;9.60;;;2.90;;
18338;SDS011;9295;44.484;11.240;2023-03-17T01:24:21;6.97;;;3.13;;
18338;SDS011;9295;44.484;11.240;2023-03-17T01:26:49;5.23;;;2.83;;
18338;SDS011;9295;44.484;11.240;2023-03-17T01:29:18;9.50;;;3.33;;
18338;SDS011;9295;44.484;11.240;2023-03-17T01:31:48;7.40;;;3.40;;
18338;SDS011;9295;44.484;11.240;2023-03-17T01:34:17;7.47;;;3.53;;
18338;SDS011;9295;44.484;11.240;2023-03-17T01:36:45;5.77;;;3.17;;
18338;SDS011;9295;44.484;11.240;2023-03-17T01:39:14;5.93;;;3.50;;
18338;SDS011;9295;44.484;11.240;2023-03-17T01:41:43;6.27;;;3.30;;
18338;SDS011;9295;44.484;11.240;2023-03-17T01:44:14;11.73;;;3.23;;
18338;SDS011;9295;44.484;11.240;2023-03-17T01:46:44;7.30;;;3.40;;
18338;SDS011;9295;44.484;11.240;2023-03-17T01:49:19;8.90;;;3.43;;
18338;SDS011;9295;44.484;11.240;2023-03-17T01:51:53;6.27;;;3.20;;
18338;SDS011;9295;44.484;11.240;2023-03-17T01:54:28;5.33;;;3.20;;
18338;SDS011;9295;44.484;11.240;2023-03-17T01:57:02;5.70;;;2.80;;
18338;SDS011;9295;44.484;11.240;2023-03-17T01:59:35;6.83;;;3.00;;
18338;SDS011;9295;44.484;11.240;2023-03-17T02:02:08;6.73;;;3.87;;
18338;SDS011;9295;44.484;11.240;2023-03-17T02:04:41;7.37;;;3.50;;
18338;SDS011;9295;44.484;11.240;2023-03-17T02:07:10;9.27;;;4.30;;
18338;SDS011;9295;44.484;11.240;2023-03-17T02:09:40;8.73;;;3.30;;
18338;SDS011;9295;44.484;11.240;2023-03-17T02:12:10;6.77;;;4.00;;
18338;SDS011;9295;44.484;11.240;2023-03-17T02:14:40;9.33;;;3.57;;
18338;SDS011;9295;44.484;11.240;2023-03-17T02:17:12;7.00;;;3.43;;
18338;SDS011;9295;44.484;11.240;2023-03-17T02:19:42;6.27;;;3.23;;
18338;SDS011;9295;44.484;11.240;2023-03-17T02:22:12;6.00;;;2.90;;
18338;SDS011;9295;44.484;11.240;2023-03-17T02:24:45;5.77;;;3.70;;
18338;SDS011;9295;44.484;11.240;2023-03-17T02:27:16;8.83;;;3.43;;
18338;SDS011;9295;44.484;11.240;2023-03-17T02:29:48;4.47;;;2.73;;
18338;SDS011;9295;44.484;11.240;2023-03-17T02:32:18;5.50;;;3.30;;
18338;SDS011;9295;44.484;11.240;2023-03-17T02:34:47;8.80;;;3.60;;
18338;SDS011;9295;44.484;11.240;2023-03-17T02:37:18;5.20;;;3.23;;
18338;SDS011;9295;44.484;11.240;2023-03-17T02:39:47;6.30;;;3.83;;
18338;SDS011;9295;44.484;11.240;2023-03-17T02:42:15;6.50;;;3.70;;
18338;SDS011;9295;44.484;11.240;2023-03-17T02:44:44;6.57;;;3.43;;
18338;SDS011;9295;44.484;11.240;2023-03-17T02:47:13;6.10;;;3.40;;
18338;SDS011;9295;44.484;11.240;2023-03-17T02:49:41;8.10;;;3.50;;
18338;SDS011;9295;44.484;11.240;2023-03-17T02:52:11;5.77;;;2.93;;
18338;SDS011;9295;44.484;11.240;2023-03-17T02:54:41;5.63;;;3.30;;
18338;SDS011;9295;44.484;11.240;2023-03-17T02:57:09;9.03;;;3.50;;
18338;SDS011;9295;44.484;11.240;2023-03-17T02:59:38;9.60;;;3.33;;
18338;SDS011;9295;44.484;11.240;2023-03-17T03:02:07;7.97;;;3.33;;
18338;SDS011;9295;44.484;11.240;2023-03-17T03:04:36;3.77;;;2.67;;
18338;SDS011;9295;44.484;11.240;2023-03-17T03:07:04;7.83;;;3.40;;
18338;SDS011;9295;44.484;11.240;2023-03-17T03:09:33;4.50;;;2.50;;
18338;SDS011;9295;44.484;11.240;2023-03-17T03:12:03;6.87;;;3.17;;
18338;SDS011;9295;44.484;11.240;2023-03-17T03:14:35;4.17;;;2.27;;
18338;SDS011;9295;44.484;11.240;2023-03-17T03:17:04;5.30;;;3.10;;
18338;SDS011;9295;44.484;11.240;2023-03-17T03:19:32;4.33;;;2.57;;
18338;SDS011;9295;44.484;11.240;2023-03-17T03:22:01;6.40;;;3.20;;
18338;SDS011;9295;44.484;11.240;2023-03-17T03:24:30;6.60;;;3.00;;
18338;SDS011;9295;44.484;11.240;2023-03-17T03:26:58;4.73;;;2.37;;
18338;SDS011;9295;44.484;11.240;2023-03-17T03:29:28;3.73;;;2.53;;
18338;SDS011;9295;44.484;11.240;2023-03-17T03:31:57;4.40;;;2.70;;
18338;SDS011;9295;44.484;11.240;2023-03-17T03:34:25;5.93;;;2.57;;
18338;SDS011;9295;44.484;11.240;2023-03-17T03:36:54;5.37;;;2.30;;
18338;SDS011;9295;44.484;11.240;2023-03-17T03:39:23;3.93;;;2.23;;
18338;SDS011;9295;44.484;11.240;2023-03-17T03:41:52;3.93;;;2.50;;
18338;SDS011;9295;44.484;11.240;2023-03-17T03:44:22;4.83;;;2.27;;
18338;SDS011;9295;44.484;11.240;2023-03-17T03:46:53;8.60;;;2.57;;
18338;SDS011;9295;44.484;11.240;2023-03-17T03:49:21;5.37;;;2.87;;
18338;SDS011;9295;44.484;11.240;2023-03-17T03:51:50;6.80;;;2.60;;
18338;SDS011;9295;44.484;11.240;2023-03-17T03:54:18;4.57;;;2.83;;
18338;SDS011;9295;44.484;11.240;2023-03-17T03:56:47;6.80;;;2.47;;
18338;SDS011;9295;44.484;11.240;2023-03-17T03:59:15;4.87;;;2.87;;
18338;SDS011;9295;44.484;11.240;2023-03-17T04:01:44;7.63;;;3.10;;
18338;SDS011;9295;44.484;11.240;2023-03-17T04:04:14;4.43;;;2.80;;
18338;SDS011;9295;44.484;11.240;2023-03-17T04:06:42;7.07;;;2.67;;
18338;SDS011;9295;44.484;11.240;2023-03-17T04:09:11;6.27;;;2.80;;
18338;SDS011;9295;44.484;11.240;2023-03-17T04:11:39;5.33;;;2.90;;
18338;SDS011;9295;44.484;11.240;2023-03-17T04:14:08;7.80;;;3.30;;
18338;SDS011;9295;44.484;11.240;2023-03-17T04:16:36;5.17;;;2.50;;
18338;SDS011;9295;44.484;11.240;2023-03-17T04:19:09;7.80;;;2.67;;
18338;SDS011;9295;44.484;11.240;2023-03-17T04:21:39;5.80;;;2.70;;
18338;SDS011;9295;44.484;11.240;2023-03-17T04:24:08;4.13;;;2.50;;
18338;SDS011;9295;44.484;11.240;2023-03-17T04:26:36;4.53;;;2.30;;
18338;SDS011;9295;44.484;11.240;2023-03-17T04:29:05;5.13;;;3.40;;
18338;SDS011;9295;44.484;11.240;2023-03-17T04:31:34;5.40;;;2.67;;
18338;SDS011;9295;44.484;11.240;2023-03-17T04:34:05;3.67;;;2.20;;
18338;SDS011;9295;44.484;11.240;2023-03-17T04:36:33;4.90;;;2.63;;
18338;SDS011;9295;44.484;11.240;2023-03-17T04:39:04;6.13;;;3.00;;
18338;SDS011;9295;44.484;11.240;2023-03-17T04:41:32;5.57;;;2.70;;
18338;SDS011;9295;44.484;11.240;2023-03-17T04:44:01;6.77;;;2.60;;
18338;SDS011;9295;44.484;11.240;2023-03-17T04:46:30;6.13;;;2.70;;
18338;SDS011;9295;44.484;11.240;2023-03-17T04:48:59;7.00;;;2.90;;
18338;SDS011;9295;44.484;11.240;2023-03-17T04:51:27;4.97;;;2.50;;
18338;SDS011;9295;44.484;11.240;2023-03-17T04:53:56;4.20;;;2.40;;
18338;SDS011;9295;44.484;11.240;2023-03-17T04:56:27;3.47;;;2.37;;
18338;SDS011;9295;44.484;11.240;2023-03-17T04:58:57;7.60;;;2.13;;
18338;SDS011;9295;44.484;11.240;2023-03-17T05:01:26;4.80;;;2.33;;
18338;SDS011;9295;44.484;11.240;2023-03-17T05:03:54;5.93;;;1.90;;
18338;SDS011;9295;44.484;11.240;2023-03-17T05:06:23;5.37;;;2.50;;
18338;SDS011;9295;44.484;11.240;2023-03-17T05:08:52;3.93;;;2.30;;
18338;SDS011;9295;44.484;11.240;2023-03-17T05:11:20;4.80;;;2.60;;
18338;SDS011;9295;44.484;11.240;2023-03-17T05:13:50;4.53;;;2.57;;
18338;SDS011;9295;44.484;11.240;2023-03-17T05:16:19;4.00;;;2.70;;
18338;SDS011;9295;44.484;11.240;2023-03-17T05:18:47;8.60;;;2.60;;
18338;SDS011;9295;44.484;11.240;2023-03-17T05:21:16;3.60;;;2.40;;
18338;SDS011;9295;44.484;11.240;2023-03-17T05:23:45;4.33;;;2.20;;
18338;SDS011;9295;44.484;11.240;2023-03-17T05:26:13;3.93;;;2.30;;
18338;SDS011;9295;44.484;11.240;2023-03-17T05:28:42;5.17;;;2.20;;
18338;SDS011;9295;44.484;11.240;2023-03-17T05:31:12;6.73;;;2.30;;
18338;SDS011;9295;44.484;11.240;2023-03-17T05:33:41;4.93;;;2.30;;
18338;SDS011;9295;44.484;11.240;2023-03-17T05:36:09;3.90;;;2.20;;
18338;SDS011;9295;44.484;11.240;2023-03-17T05:38:38;5.00;;;2.20;;
18338;SDS011;9295;44.484;11.240;2023-03-17T05:41:07;3.90;;;2.43;;
18338;SDS011;9295;44.484;11.240;2023-03-17T05:43:36;6.23;;;2.10;;
18338;SDS011;9295;44.484;11.240;2023-03-17T05:46:05;6.90;;;2.57;;
18338;SDS011;9295;44.484;11.240;2023-03-17T05:48:35;7.63;;;2.20;;
18338;SDS011;9295;44.484;11.240;2023-03-17T05:51:03;4.30;;;2.70;;
18338;SDS011;9295;44.484;11.240;2023-03-17T05:53:32;6.40;;;2.43;;
18338;SDS011;9295;44.484;11.240;2023-03-17T05:56:01;3.50;;;1.97;;
18338;SDS011;9295;44.484;11.240;2023-03-17T05:58:30;4.33;;;2.43;;
18338;SDS011;9295;44.484;11.240;2023-03-17T06:00:58;4.73;;;2.20;;
18338;SDS011;9295;44.484;11.240;2023-03-17T06:03:27;5.90;;;2.27;;
18338;SDS011;9295;44.484;11.240;2023-03-17T06:05:57;6.30;;;2.80;;
18338;SDS011;9295;44.484;11.240;2023-03-17T06:08:26;11.73;;;2.97;;
18338;SDS011;9295;44.484;11.240;2023-03-17T06:10:54;4.80;;;2.87;;
18338;SDS011;9295;44.484;11.240;2023-03-17T06:13:23;10.30;;;3.07;;
18338;SDS011;9295;44.484;11.240;2023-03-17T06:15:52;5.37;;;2.40;;
18338;SDS011;9295;44.484;11.240;2023-03-17T06:18:22;4.47;;;2.53;;
18338;SDS011;9295;44.484;11.240;2023-03-17T06:20:50;4.23;;;2.40;;
18338;SDS011;9295;44.484;11.240;2023-03-17T06:23:20;7.00;;;2.37;;
18338;SDS011;9295;44.484;11.240;2023-03-17T06:25:49;3.83;;;2.60;;
18338;SDS011;9295;44.484;11.240;2023-03-17T06:28:18;4.10;;;2.03;;
18338;SDS011;9295;44.484;11.240;2023-03-17T06:30:46;3.10;;;2.03;;
18338;SDS011;9295;44.484;11.240;2023-03-17T06:33:15;2.93;;;1.77;;
18338;SDS011;9295;44.484;11.240;2023-03-17T06:35:44;3.20;;;1.80;;
18338;SDS011;9295;44.484;11.240;2023-03-17T06:38:13;3.10;;;2.10;;
18338;SDS011;9295;44.484;11.240;2023-03-17T06:40:43;3.97;;;2.00;;
18338;SDS011;9295;44.484;11.240;2023-03-17T06:43:12;3.73;;;2.00;;
18338;SDS011;9295;44.484;11.240;2023-03-17T06:45:40;3.27;;;1.80;;
18338;SDS011;9295;44.484;11.240;2023-03-17T06:48:09;3.20;;;2.10;;
18338;SDS011;9295;44.484;11.240;2023-03-17T06:50:37;3.57;;;2.10;;
18338;SDS011;9295;44.484;11.240;2023-03-17T06:53:06;4.03;;;2.20;;
18338;SDS011;9295;44.484;11.240;2023-03-17T06:55:34;4.90;;;2.17;;
18338;SDS011;9295;44.484;11.240;2023-03-17T06:58:04;6.00;;;2.10;;
18338;SDS011;9295;44.484;11.240;2023-03-17T07:00:33;6.63;;;2.20;;
18338;SDS011;9295;44.484;11.240;2023-03-17T07:03:01;3.73;;;2.20;;
18338;SDS011;9295;44.484;11.240;2023-03-17T07:05:30;4.00;;;2.20;;
18338;SDS011;9295;44.484;11.240;2023-03-17T07:07:59;9.23;;;2.20;;
18338;SDS011;9295;44.484;11.240;2023-03-17T07:10:27;5.73;;;2.40;;
18338;SDS011;9295;44.484;11.240;2023-03-17T07:12:56;7.60;;;2.70;;
18338;SDS011;9295;44.484;11.240;2023-03-17T07:15:27;5.97;;;2.27;;
18338;SDS011;9295;44.484;11.240;2023-03-17T07:17:57;11.27;;;2.53;;
18338;SDS011;9295;44.484;11.240;2023-03-17T07:20:26;7.40;;;2.77;;
18338;SDS011;9295;44.484;11.240;2023-03-17T07:22:55;10.43;;;2.50;;
18338;SDS011;9295;44.484;11.240;2023-03-17T07:25:23;7.50;;;2.43;;
18338;SDS011;9295;44.484;11.240;2023-03-17T07:27:52;7.30;;;2.90;;
18338;SDS011;9295;44.484;11.240;2023-03-17T07:30:22;8.47;;;2.70;;
18338;SDS011;9295;44.484;11.240;2023-03-17T07:32:52;8.80;;;3.37;;
18338;SDS011;9295;44.484;11.240;2023-03-17T07:35:20;6.10;;;2.70;;
18338;SDS011;9295;44.484;11.240;2023-03-17T07:37:49;7.67;;;2.67;;
18338;SDS011;9295;44.484;11.240;2023-03-17T07:40:17;12.67;;;3.40;;
18338;SDS011;9295;44.484;11.240;2023-03-17T07:42:47;7.00;;;3.07;;
18338;SDS011;9295;44.484;11.240;2023-03-17T07:45:16;7.90;;;2.87;;
18338;SDS011;9295;44.484;11.240;2023-03-17T07:47:44;12.80;;;3.50;;
18338;SDS011;9295;44.484;11.240;2023-03-17T07:50:14;10.97;;;3.53;;
18338;SDS011;9295;44.484;11.240;2023-03-17T07:52:44;6.80;;;3.30;;
18338;SDS011;9295;44.484;11.240;2023-03-17T07:55:13;8.37;;;3.10;;
18338;SDS011;9295;44.484;11.240;2023-03-17T07:57:42;8.60;;;3.27;;
18338;SDS011;9295;44.484;11.240;2023-03-17T08:00:11;7.13;;;3.10;;
18338;SDS011;9295;44.484;11.240;2023-03-17T08:02:40;16.10;;;3.47;;
18338;SDS011;9295;44.484;11.240;2023-03-17T08:05:09;10.93;;;2.90;;
18338;SDS011;9295;44.484;11.240;2023-03-17T08:07:41;11.10;;;3.70;;
18338;SDS011;9295;44.484;11.240;2023-03-17T08:10:11;6.83;;;2.63;;
18338;SDS011;9295;44.484;11.240;2023-03-17T08:12:40;9.27;;;3.07;;
18338;SDS011;9295;44.484;11.240;2023-03-17T08:15:09;6.63;;;2.70;;
18338;SDS011;9295;44.484;11.240;2023-03-17T08:17:38;6.07;;;3.03;;
18338;SDS011;9295;44.484;11.240;2023-03-17T08:20:08;9.67;;;3.30;;
18338;SDS011;9295;44.484;11.240;2023-03-17T08:22:37;6.37;;;3.20;;
18338;SDS011;9295;44.484;11.240;2023-03-17T08:25:07;5.13;;;3.50;;
18338;SDS011;9295;44.484;11.240;2023-03-17T08:27:37;11.03;;;3.50;;
18338;SDS011;9295;44.484;11.240;2023-03-17T08:30:07;7.23;;;4.00;;
18338;SDS011;9295;44.484;11.240;2023-03-17T08:32:36;15.63;;;4.00;;
18338;SDS011;9295;44.484;11.240;2023-03-17T08:35:05;7.80;;;4.10;;
18338;SDS011;9295;44.484;11.240;2023-03-17T08:37:34;10.20;;;4.13;;
18338;SDS011;9295;44.484;11.240;2023-03-17T08:40:03;9.77;;;3.67;;
18338;SDS011;9295;44.484;11.240;2023-03-17T08:42:37;8.40;;;4.23;;
18338;SDS011;9295;44.484;11.240;2023-03-17T08:45:06;11.77;;;3.70;;
18338;SDS011;9295;44.484;11.240;2023-03-17T08:47:35;10.80;;;4.10;;
18338;SDS011;9295;44.484;11.240;2023-03-17T08:50:05;13.33;;;4.17;;
18338;SDS011;9295;44.484;11.240;2023-03-17T08:52:38;11.87;;;5.33;;
18338;SDS011;9295;44.484;11.240;2023-03-17T08:55:06;8.17;;;4.93;;
18338;SDS011;9295;44.484;11.240;2023-03-17T08:57:37;11.83;;;4.80;;
18338;SDS011;9295;44.484;11.240;2023-03-17T09:00:06;12.80;;;5.10;;
18338;SDS011;9295;44.484;11.240;2023-03-17T09:02:36;16.53;;;5.10;;
18338;SDS011;9295;44.484;11.240;2023-03-17T09:05:06;14.47;;;5.60;;
18338;SDS011;9295;44.484;11.240;2023-03-17T09:07:35;8.97;;;4.93;;
18338;SDS011;9295;44.484;11.240;2023-03-17T09:10:05;11.73;;;4.17;;
18338;SDS011;9295;44.484;11.240;2023-03-17T09:12:35;10.73;;;4.17;;
18338;SDS011;9295;44.484;11.240;2023-03-17T09:15:06;21.33;;;4.53;;
18338;SDS011;9295;44.484;11.240;2023-03-17T09:17:36;9.97;;;3.67;;
18338;SDS011;9295;44.484;11.240;2023-03-17T09:20:05;12.43;;;4.30;;
18338;SDS011;9295;44.484;11.240;2023-03-17T09:22:34;5.90;;;3.60;;
18338;SDS011;9295;44.484;11.240;2023-03-17T09:25:03;15.47;;;3.90;;
18338;SDS011;9295;44.484;11.240;2023-03-17T09:27:33;15.40;;;3.20;;
18338;SDS011;9295;44.484;11.240;2023-03-17T09:30:02;5.87;;;2.77;;
18338;SDS011;9295;44.484;11.240;2023-03-17T09:32:33;3.70;;;2.07;;
18338;SDS011;9295;44.484;11.240;2023-03-17T09:35:01;3.80;;;2.33;;
18338;SDS011;9295;44.484;11.240;2023-03-17T09:37:30;5.43;;;3.00;;
18338;SDS011;9295;44.484;11.240;2023-03-17T09:40:00;13.33;;;3.00;;
18338;SDS011;9295;44.484;11.240;2023-03-17T09:42:41;4.10;;;2.50;;
18338;SDS011;9295;44.484;11.240;2023-03-17T09:45:22;10.83;;;2.70;;
18338;SDS011;9295;44.484;11.240;2023-03-17T09:48:05;7.63;;;2.63;;
18338;SDS011;9295;44.484;11.240;2023-03-17T09:50:44;8.00;;;2.93;;
18338;SDS011;9295;44.484;11.240;2023-03-17T09:53:16;4.90;;;2.60;;
18338;SDS011;9295;44.484;11.240;2023-03-17T09:55:47;8.77;;;3.00;;
18338;SDS011;9295;44.484;11.240;2023-03-17T09:58:21;6.40;;;2.83;;
18338;SDS011;9295;44.484;11.240;2023-03-17T10:00:56;4.97;;;2.70;;
18338;SDS011;9295;44.484;11.240;2023-03-17T10:03:26;5.67;;;2.60;;
18338;SDS011;9295;44.484;11.240;2023-03-17T10:05:58;6.40;;;2.80;;
18338;SDS011;9295;44.484;11.240;2023-03-17T10:08:43;4.63;;;2.60;;
18338;SDS011;9295;44.484;11.240;2023-03-17T10:11:18;4.90;;;3.10;;
18338;SDS011;9295;44.484;11.240;2023-03-17T10:13:57;5.83;;;2.83;;
18338;SDS011;9295;44.484;11.240;2023-03-17T10:16:33;5.63;;;2.90;;
18338;SDS011;9295;44.484;11.240;2023-03-17T10:19:12;8.53;;;3.00;;
18338;SDS011;9295;44.484;11.240;2023-03-17T10:21:49;4.43;;;2.80;;
18338;SDS011;9295;44.484;11.240;2023-03-17T10:24:19;4.67;;;3.10;;
18338;SDS011;9295;44.484;11.240;2023-03-17T10:26:50;7.50;;;3.10;;
18338;SDS011;9295;44.484;11.240;2023-03-17T10:29:20;4.63;;;2.97;;
18338;SDS011;9295;44.484;11.240;2023-03-17T10:31:51;3.87;;;2.57;;
18338;SDS011;9295;44.484;11.240;2023-03-17T10:34:26;9.00;;;3.00;;
18338;SDS011;9295;44.484;11.240;2023-03-17T10:36:59;6.80;;;2.93;;
18338;SDS011;9295;44.484;11.240;2023-03-17T10:39:31;6.20;;;3.40;;
18338;SDS011;9295;44.484;11.240;2023-03-17T10:42:09;7.63;;;3.53;;
18338;SDS011;9295;44.484;11.240;2023-03-17T10:44:42;6.57;;;3.00;;
18338;SDS011;9295;44.484;11.240;2023-03-17T10:47:19;5.70;;;3.10;;
18338;SDS011;9295;44.484;11.240;2023-03-17T10:50:17;3.63;;;2.47;;
18338;SDS011;9295;44.484;11.240;2023-03-17T10:52:51;6.27;;;2.90;;
18338;SDS011;9295;44.484;11.240;2023-03-17T10:55:21;7.43;;;3.33;;
18338;SDS011;9295;44.484;11.240;2023-03-17T10:57:56;7.73;;;3.33;;
18338;SDS011;9295;44.484;11.240;2023-03-17T11:00:30;11.00;;;3.60;;
18338;SDS011;9295;44.484;11.240;2023-03-17T11:03:02;4.87;;;2.83;;
18338;SDS011;9295;44.484;11.240;2023-03-17T11:05:39;6.70;;;3.33;;
18338;SDS011;9295;44.484;11.240;2023-03-17T11:08:08;6.30;;;3.30;;
18338;SDS011;9295;44.484;11.240;2023-03-17T11:10:44;4.67;;;3.23;;
18338;SDS011;9295;44.484;11.240;2023-03-17T11:13:14;4.50;;;3.00;;
18338;SDS011;9295;44.484;11.240;2023-03-17T11:15:45;7.47;;;3.67;;
18338;SDS011;9295;44.484;11.240;2023-03-17T11:18:19;6.87;;;3.73;;
18338;SDS011;9295;44.484;11.240;2023-03-17T11:20:53;8.80;;;3.63;;
18338;SDS011;9295;44.484;11.240;2023-03-17T11:23:33;8.03;;;3.80;;
18338;SDS011;9295;44.484;11.240;2023-03-17T11:26:18;8.60;;;3.67;;
18338;SDS011;9295;44.484;11.240;2023-03-17T11:29:03;8.87;;;4.13;;
18338;SDS011;9295;44.484;11.240;2023-03-17T11:31:57;4.60;;;3.43;;
18338;SDS011;9295;44.484;11.240;2023-03-17T11:34:45;10.10;;;4.03;;
18338;SDS011;9295;44.484;11.240;2023-03-17T11:37:28;8.47;;;4.70;;
18338;SDS011;9295;44.484;11.240;2023-03-17T11:40:14;9.13;;;5.10;;
18338;SDS011;9295;44.484;11.240;2023-03-17T11:42:49;7.03;;;4.30;;
18338;SDS011;9295;44.484;11.240;2023-03-17T11:45:24;10.53;;;4.47;;
18338;SDS011;9295;44.484;11.240;2023-03-17T11:48:12;8.50;;;4.43;;
18338;SDS011;9295;44.484;11.240;2023-03-17T11:51:00;9.37;;;4.50;;
18338;SDS011;9295;44.484;11.240;2023-03-17T11:53:43;8.40;;;3.40;;
18338;SDS011;9295;44.484;11.240;2023-03-17T11:56:38;6.33;;;3.70;;
18338;SDS011;9295;44.484;11.240;2023-03-17T11:59:14;6.83;;;4.10;;
18338;SDS011;9295;44.484;11.240;2023-03-17T12:01:53;6.70;;;4.23;;
18338;SDS011;9295;44.484;11.240;2023-03-17T12:04:26;7.27;;;4.40;;
18338;SDS011;9295;44.484;11.240;2023-03-17T12:07:02;6.87;;;4.00;;
18338;SDS011;9295;44.484;11.240;2023-03-17T12:09:40;6.53;;;3.63;;
18338;SDS011;9295;44.484;11.240;2023-03-17T12:12:13;6.93;;;3.83;;
18338;SDS011;9295;44.484;11.240;2023-03-17T12:14:48;8.10;;;3.67;;
18338;SDS011;9295;44.484;11.240;2023-03-17T12:17:19;10.93;;;3.90;;
18338;SDS011;9295;44.484;11.240;2023-03-17T12:19:57;5.77;;;3.53;;
18338;SDS011;9295;44.484;11.240;2023-03-17T12:22:33;4.60;;;3.27;;
18338;SDS011;9295;44.484;11.240;2023-03-17T12:25:11;6.37;;;3.60;;
18338;SDS011;9295;44.484;11.240;2023-03-17T12:27:47;6.50;;;3.67;;
18338;SDS011;9295;44.484;11.240;2023-03-17T12:30:22;8.20;;;4.20;;
18338;SDS011;9295;44.484;11.240;2023-03-17T12:32:57;10.67;;;4.10;;
18338;SDS011;9295;44.484;11.240;2023-03-17T12:35:30;5.73;;;3.80;;
18338;SDS011;9295;44.484;11.240;2023-03-17T12:38:03;6.63;;;3.60;;
18338;SDS011;9295;44.484;11.240;2023-03-17T12:40:39;5.73;;;3.47;;
18338;SDS011;9295;44.484;11.240;2023-03-17T12:43:35;6.17;;;3.60;;
18338;SDS011;9295;44.484;11.240;2023-03-17T12:46:14;5.60;;;3.20;;
18338;SDS011;9295;44.484;11.240;2023-03-17T12:49:04;8.30;;;4.00;;
18338;SDS011;9295;44.484;11.240;2023-03-17T12:51:53;6.00;;;3.60;;
18338;SDS011;9295;44.484;11.240;2023-03-17T12:54:32;10.20;;;3.80;;
18338;SDS011;9295;44.484;11.240;2023-03-17T12:57:05;6.00;;;3.40;;
18338;SDS011;9295;44.484;11.240;2023-03-17T12:59:41;7.90;;;3.27;;
18338;SDS011;9295;44.484;11.240;2023-03-17T13:02:15;5.57;;;3.53;;
18338;SDS011;9295;44.484;11.240;2023-03-17T13:04:50;8.60;;;3.60;;
18338;SDS011;9295;44.484;11.240;2023-03-17T13:07:24;7.63;;;3.40;;
18338;SDS011;9295;44.484;11.240;2023-03-17T13:10:12;6.60;;;3.83;;
18338;SDS011;9295;44.484;11.240;2023-03-17T13:13:20;6.43;;;4.07;;
18338;SDS011;9295;44.484;11.240;2023-03-17T13:16:02;4.90;;;3.40;;
18338;SDS011;9295;44.484;11.240;2023-03-17T13:21:33;5.40;;;3.67;;
18338;SDS011;9295;44.484;11.240;2023-03-17T13:24:19;12.50;;;3.60;;
18338;SDS011;9295;44.484;11.240;2023-03-17T13:26:54;5.97;;;3.73;;
18338;SDS011;9295;44.484;11.240;2023-03-17T13:32:30;6.47;;;3.70;;
18338;SDS011;9295;44.484;11.240;2023-03-17T13:38:15;4.20;;;3.33;;
18338;SDS011;9295;44.484;11.240;2023-03-17T13:43:50;8.33;;;4.00;;
18338;SDS011;9295;44.484;11.240;2023-03-17T13:46:32;6.67;;;3.30;;
18338;SDS011;9295;44.484;11.240;2023-03-17T13:49:17;8.80;;;4.37;;
18338;SDS011;9295;44.484;11.240;2023-03-17T13:51:52;7.57;;;4.03;;
18338;SDS011;9295;44.484;11.240;2023-03-17T13:54:30;6.70;;;4.37;;
18338;SDS011;9295;44.484;11.240;2023-03-17T13:59:54;13.83;;;3.90;;
18338;SDS011;9295;44.484;11.240;2023-03-17T14:02:34;9.30;;;3.97;;
18338;SDS011;9295;44.484;11.240;2023-03-17T14:05:06;6.17;;;4.17;;
18338;SDS011;9295;44.484;11.240;2023-03-17T14:07:45;7.87;;;3.80;;
18338;SDS011;9295;44.484;11.240;2023-03-17T14:10:20;7.67;;;4.03;;
18338;SDS011;9295;44.484;11.240;2023-03-17T14:12:52;5.57;;;4.00;;
18338;SDS011;9295;44.484;11.240;2023-03-17T14:15:26;8.33;;;3.80;;
18338;SDS011;9295;44.484;11.240;2023-03-17T14:18:01;8.40;;;4.30;;
18338;SDS011;9295;44.484;11.240;2023-03-17T14:20:35;6.10;;;4.17;;
18338;SDS011;9295;44.484;11.240;2023-03-17T14:23:04;8.20;;;4.50;;
18338;SDS011;9295;44.484;11.240;2023-03-17T14:25:34;7.43;;;4.50;;
18338;SDS011;9295;44.484;11.240;2023-03-17T14:28:04;7.63;;;4.23;;
18338;SDS011;9295;44.484;11.240;2023-03-17T14:30:37;8.03;;;4.30;;
18338;SDS011;9295;44.484;11.240;2023-03-17T14:33:21;6.43;;;3.93;;
18338;SDS011;9295;44.484;11.240;2023-03-17T14:35:51;8.80;;;4.60;;
18338;SDS011;9295;44.484;11.240;2023-03-17T14:38:23;9.43;;;4.00;;
18338;SDS011;9295;44.484;11.240;2023-03-17T14:40:58;7.10;;;4.13;;
18338;SDS011;9295;44.484;11.240;2023-03-17T14:43:28;8.73;;;4.67;;
18338;SDS011;9295;44.484;11.240;2023-03-17T14:45:59;7.50;;;4.13;;
18338;SDS011;9295;44.484;11.240;2023-03-17T14:48:31;9.27;;;4.00;;
18338;SDS011;9295;44.484;11.240;2023-03-17T14:51:02;5.13;;;3.53;;
18338;SDS011;9295;44.484;11.240;2023-03-17T14:53:34;7.13;;;4.10;;
18338;SDS011;9295;44.484;11.240;2023-03-17T14:56:07;6.67;;;4.07;;
18338;SDS011;9295;44.484;11.240;2023-03-17T14:58:38;4.90;;;3.40;;
18338;SDS011;9295;44.484;11.240;2023-03-17T15:01:11;5.97;;;3.60;;
18338;SDS011;9295;44.484;11.240;2023-03-17T15:03:52;6.90;;;4.20;;
18338;SDS011;9295;44.484;11.240;2023-03-17T15:06:23;11.47;;;4.73;;
18338;SDS011;9295;44.484;11.240;2023-03-17T15:08:55;8.83;;;4.10;;
18338;SDS011;9295;44.484;11.240;2023-03-17T15:11:26;8.77;;;3.80;;
18338;SDS011;9295;44.484;11.240;2023-03-17T15:14:04;8.13;;;4.30;;
18338;SDS011;9295;44.484;11.240;2023-03-17T15:16:42;7.63;;;4.47;;
18338;SDS011;9295;44.484;11.240;2023-03-17T15:19:23;7.70;;;4.17;;
18338;SDS011;9295;44.484;11.240;2023-03-17T15:21:55;10.60;;;5.17;;
18338;SDS011;9295;44.484;11.240;2023-03-17T15:24:35;6.30;;;4.30;;
18338;SDS011;9295;44.484;11.240;2023-03-17T15:27:09;8.27;;;4.07;;
18338;SDS011;9295;44.484;11.240;2023-03-17T15:29:41;8.20;;;4.93;;